Aegean Orion — SVA2487 — position and weather

sailwx.info

Track history (hours):
 
Tides and Currents Weather Stations Pressure Air Temp Water Temp Dewpoint Dewpoint Depression Visibility Wind Speed Wind Dir Waves Ship Positions

Aegean Orion

Last reported at 2016-May-03 04:33 UTC. Time now 2016-May-03 20:07 UTC.
Position N 38°02' E 023°32'.

; draft 2.4 m.

Type: Ship. MMSI: 239550200.

Date/timePositionNaut miles runAvg speedWind from/ knotsBaromVisibWave heightAir tempDewpointWater temp
2016-May-03 04:33N 38°02' E 023°32'5 4.9
2016-May-03 03:33N 37°57' E 023°34'0 0.0
2016-May-03 02:33N 37°57' E 023°34'0 0.0
2016-May-03 01:33N 37°57' E 023°34'0 0.0
2016-May-03 00:34N 37°57' E 023°34'3 2.8
2016-May-02 23:33N 37°56' E 023°37'1 0.9
2016-May-02 22:33N 37°57' E 023°38'0 0.0
2016-May-02 21:33N 37°57' E 023°38'1 1.3
2016-May-02 20:33N 37°56' E 023°37'2 2.4
2016-May-02 19:34N 37°57' E 023°34'0 0.0
2016-May-02 18:33N 37°57' E 023°34'0 0.0
2016-May-02 17:33N 37°57' E 023°34'0 0.0
2016-May-02 16:33N 37°57' E 023°34'0 0.0
2016-May-02 15:33N 37°57' E 023°34'0 0.0
2016-May-02 14:33N 37°57' E 023°34'3 3.4
2016-May-02 13:33N 37°57' E 023°38'0 0.0
2016-May-02 12:33N 37°57' E 023°38'3 3.1
2016-May-02 11:33N 37°57' E 023°35'6 5.6
2016-May-02 10:33N 38°02' E 023°32'0 0.0
2016-Apr-30 16:33N 38°02' E 023°31'6 6.1
2016-Apr-30 15:33N 37°58' E 023°26'7 7.4
2016-Apr-30 14:33N 37°56' E 023°16'8 7.8
2016-Apr-30 13:32N 37°55' E 023°07'1 1.1
2016-Apr-30 12:33N 37°55' E 023°05'0 0.0
2016-Apr-30 11:33N 37°55' E 023°05'0 0.0
2016-Apr-30 10:30N 37°55' E 023°05'0 0.0
2016-Apr-30 09:33N 37°55' E 023°05'0 0.0
2016-Apr-30 08:33N 37°55' E 023°05'0 0.1
2016-Apr-30 07:33N 37°55' E 023°05'1 0.6
2016-Apr-30 06:33N 37°54' E 023°06'1 0.8
2016-Apr-30 05:33N 37°54' E 023°05'2 2.0
2016-Apr-30 04:33N 37°55' E 023°02'0 0.0
2016-Apr-30 03:32N 37°55' E 023°02'0 0.0
2016-Apr-30 02:33N 37°55' E 023°02'0 0.0
2016-Apr-30 01:33N 37°55' E 023°02'0 0.0
2016-Apr-30 00:33N 37°55' E 023°02'1 1.3
2016-Apr-29 23:32N 37°54' E 023°04'8 8.4
2016-Apr-29 22:33N 37°54' E 023°14'8 8.5
2016-Apr-29 21:33N 37°52' E 023°25'8 8.2
2016-Apr-29 20:33N 37°55' E 023°35'4 3.5
2016-Apr-29 19:33N 37°57' E 023°38'0 0.0
2016-Apr-29 18:33N 37°57' E 023°38'0 0.0
2016-Apr-29 17:33N 37°57' E 023°38'2 1.6
2016-Apr-29 16:34N 37°57' E 023°36'6 5.8
2016-Apr-29 15:34N 38°01' E 023°32'3 0.3
2016-Apr-29 04:34N 37°58' E 023°33'1 1.3
2016-Apr-29 03:34N 37°57' E 023°34'0 0.0
2016-Apr-29 02:34N 37°57' E 023°34'0 0.0
2016-Apr-29 01:34N 37°57' E 023°34'0 0.0
2016-Apr-29 00:34N 37°57' E 023°34'2 1.7
2016-Apr-28 23:34N 37°57' E 023°36'2 1.9
2016-Apr-28 22:34N 37°57' E 023°38'0 0.0
2016-Apr-28 21:34N 37°57' E 023°38'0 0.0
2016-Apr-28 20:33N 37°57' E 023°38'4 3.5
2016-Apr-28 19:34N 37°57' E 023°34'0 0.0
2016-Apr-28 18:34N 37°57' E 023°34'0 0.0
2016-Apr-28 17:34N 37°57' E 023°34'0 0.3
2016-Apr-28 16:34N 37°57' E 023°34'5 4.8
2016-Apr-28 15:34N 38°02' E 023°35'0 0.1
2016-Apr-28 14:34N 38°02' E 023°35'0 0.0
2016-Apr-28 13:33N 38°02' E 023°35'3 2.6
2016-Apr-28 12:33N 38°00' E 023°33'5 5.0
2016-Apr-28 11:34N 37°56' E 023°37'0 0.0
2016-Apr-28 10:34N 37°56' E 023°37'1 0.7
2016-Apr-28 09:34N 37°57' E 023°37'1 0.7
2016-Apr-28 08:33N 37°56' E 023°37'0 0.0
2016-Apr-28 07:33N 37°56' E 023°37'0 0.0
2016-Apr-28 06:34N 37°56' E 023°37'0 0.0
2016-Apr-28 05:34N 37°56' E 023°37'1 0.9
2016-Apr-28 04:34N 37°57' E 023°36'6 6.2
2016-Apr-28 03:34N 38°02' E 023°32'0 0.0
2016-Apr-26 16:22N 38°02' E 023°32'1 1.2
2016-Apr-26 15:33N 38°02' E 023°31'0 0.0
2016-Apr-26 14:34N 38°02' E 023°31'0 0.0
2016-Apr-26 13:33N 38°02' E 023°31'0 0.0
2016-Apr-26 12:34N 38°02' E 023°31'2 2.4
2016-Apr-26 11:33N 38°02' E 023°34'1 1.3
2016-Apr-26 10:33N 38°02' E 023°35'0 0.0
2016-Apr-26 09:33N 38°02' E 023°35'0 0.0
2016-Apr-26 08:33N 38°02' E 023°35'0 0.0
2016-Apr-26 07:34N 38°02' E 023°35'0 0.0
2016-Apr-26 06:33N 38°02' E 023°35'0 0.0
2016-Apr-26 05:33N 38°02' E 023°35'0 0.0
2016-Apr-26 04:34N 38°02' E 023°35'3 2.7
2016-Apr-26 03:34N 38°02' E 023°32'0 0.0
2016-Apr-26 02:33N 38°02' E 023°32'0 0.0
2016-Apr-26 01:33N 38°02' E 023°32'0 0.0
2016-Apr-26 00:33N 38°02' E 023°32'0 0.0
2016-Apr-25 23:34N 38°02' E 023°32'2 2.3
2016-Apr-25 22:33N 38°01' E 023°29'7 7.0
2016-Apr-25 21:33N 37°56' E 023°24'6 5.7
2016-Apr-25 20:34N 37°53' E 023°30'8 7.8
2016-Apr-25 19:33N 37°57' E 023°38'0 0.0
2016-Apr-25 18:33N 37°57' E 023°38'0 0.0
2016-Apr-25 17:33N 37°57' E 023°38'2 1.5
2016-Apr-25 16:33N 37°56' E 023°37'2 2.0
2016-Apr-25 15:33N 37°57' E 023°35'0 0.0
2016-Apr-25 14:33N 37°57' E 023°35'3 3.1
2016-Apr-25 13:33N 37°57' E 023°38'0 0.0
2016-Apr-25 12:33N 37°57' E 023°38'2 2.0
2016-Apr-25 11:33N 37°57' E 023°36'4 4.3
2016-Apr-25 10:34N 38°01' E 023°34'2 1.9
2016-Apr-25 09:33N 38°02' E 023°35'0 0.0
2016-Apr-25 08:34N 38°02' E 023°35'0 0.0
2016-Apr-25 07:33N 38°02' E 023°35'0 0.0
2016-Apr-25 06:33N 38°02' E 023°35'0 0.0
2016-Apr-25 05:33N 38°02' E 023°35'3 0.1
2016-Apr-23 08:29N 38°02' E 023°32'6 6.5
2016-Apr-23 07:33N 37°57' E 023°36'2 1.6
2016-Apr-23 06:33N 37°56' E 023°38'0 0.0
2016-Apr-23 05:33N 37°56' E 023°37'  
Track history (hours):
 
Tides and Currents Weather Stations Pressure Air Temp Water Temp Dewpoint Dewpoint Depression Visibility Wind Speed Wind Dir Waves Ship Positions

Aegean Orion

Last reported at 2016-May-03 04:33 UTC. Time now 2016-May-03 20:07 UTC.
Position N 38°02' E 023°32'.

; draft 2.4 m.

Type: Ship. MMSI: 239550200.

Date/timePositionNaut miles runAvg speedWind from/ knotsBaromVisibWave heightAir tempDewpointWater temp
2016-May-03 04:33N 38°02' E 023°32'5 4.9
2016-May-03 03:33N 37°57' E 023°34'0 0.0
2016-May-03 02:33N 37°57' E 023°34'0 0.0
2016-May-03 01:33N 37°57' E 023°34'0 0.0
2016-May-03 00:34N 37°57' E 023°34'3 2.8
2016-May-02 23:33N 37°56' E 023°37'1 0.9
2016-May-02 22:33N 37°57' E 023°38'0 0.0
2016-May-02 21:33N 37°57' E 023°38'1 1.3
2016-May-02 20:33N 37°56' E 023°37'2 2.4
2016-May-02 19:34N 37°57' E 023°34'0 0.0
2016-May-02 18:33N 37°57' E 023°34'0 0.0
2016-May-02 17:33N 37°57' E 023°34'0 0.0
2016-May-02 16:33N 37°57' E 023°34'0 0.0
2016-May-02 15:33N 37°57' E 023°34'0 0.0
2016-May-02 14:33N 37°57' E 023°34'3 3.4
2016-May-02 13:33N 37°57' E 023°38'0 0.0
2016-May-02 12:33N 37°57' E 023°38'3 3.1
2016-May-02 11:33N 37°57' E 023°35'6 5.6
2016-May-02 10:33N 38°02' E 023°32'0 0.0
2016-Apr-30 16:33N 38°02' E 023°31'6 6.1
2016-Apr-30 15:33N 37°58' E 023°26'7 7.4
2016-Apr-30 14:33N 37°56' E 023°16'8 7.8
2016-Apr-30 13:32N 37°55' E 023°07'1 1.1
2016-Apr-30 12:33N 37°55' E 023°05'0 0.0
2016-Apr-30 11:33N 37°55' E 023°05'0 0.0
2016-Apr-30 10:30N 37°55' E 023°05'0 0.0
2016-Apr-30 09:33N 37°55' E 023°05'0 0.0
2016-Apr-30 08:33N 37°55' E 023°05'0 0.1
2016-Apr-30 07:33N 37°55' E 023°05'1 0.6
2016-Apr-30 06:33N 37°54' E 023°06'1 0.8
2016-Apr-30 05:33N 37°54' E 023°05'2 2.0
2016-Apr-30 04:33N 37°55' E 023°02'0 0.0
2016-Apr-30 03:32N 37°55' E 023°02'0 0.0
2016-Apr-30 02:33N 37°55' E 023°02'0 0.0
2016-Apr-30 01:33N 37°55' E 023°02'0 0.0
2016-Apr-30 00:33N 37°55' E 023°02'1 1.3
2016-Apr-29 23:32N 37°54' E 023°04'8 8.4
2016-Apr-29 22:33N 37°54' E 023°14'8 8.5
2016-Apr-29 21:33N 37°52' E 023°25'8 8.2
2016-Apr-29 20:33N 37°55' E 023°35'4 3.5
2016-Apr-29 19:33N 37°57' E 023°38'0 0.0
2016-Apr-29 18:33N 37°57' E 023°38'0 0.0
2016-Apr-29 17:33N 37°57' E 023°38'2 1.6
2016-Apr-29 16:34N 37°57' E 023°36'6 5.8
2016-Apr-29 15:34N 38°01' E 023°32'3 0.3
2016-Apr-29 04:34N 37°58' E 023°33'1 1.3
2016-Apr-29 03:34N 37°57' E 023°34'0 0.0
2016-Apr-29 02:34N 37°57' E 023°34'0 0.0
2016-Apr-29 01:34N 37°57' E 023°34'0 0.0
2016-Apr-29 00:34N 37°57' E 023°34'2 1.7
2016-Apr-28 23:34N 37°57' E 023°36'2 1.9
2016-Apr-28 22:34N 37°57' E 023°38'0 0.0
2016-Apr-28 21:34N 37°57' E 023°38'0 0.0
2016-Apr-28 20:33N 37°57' E 023°38'4 3.5
2016-Apr-28 19:34N 37°57' E 023°34'0 0.0
2016-Apr-28 18:34N 37°57' E 023°34'0 0.0
2016-Apr-28 17:34N 37°57' E 023°34'0 0.3
2016-Apr-28 16:34N 37°57' E 023°34'5 4.8
2016-Apr-28 15:34N 38°02' E 023°35'0 0.1
2016-Apr-28 14:34N 38°02' E 023°35'0 0.0
2016-Apr-28 13:33N 38°02' E 023°35'3 2.6
2016-Apr-28 12:33N 38°00' E 023°33'5 5.0
2016-Apr-28 11:34N 37°56' E 023°37'0 0.0
2016-Apr-28 10:34N 37°56' E 023°37'1 0.7
2016-Apr-28 09:34N 37°57' E 023°37'1 0.7
2016-Apr-28 08:33N 37°56' E 023°37'0 0.0
2016-Apr-28 07:33N 37°56' E 023°37'0 0.0
2016-Apr-28 06:34N 37°56' E 023°37'0 0.0
2016-Apr-28 05:34N 37°56' E 023°37'1 0.9
2016-Apr-28 04:34N 37°57' E 023°36'6 6.2
2016-Apr-28 03:34N 38°02' E 023°32'0 0.0
2016-Apr-26 16:22N 38°02' E 023°32'1 1.2
2016-Apr-26 15:33N 38°02' E 023°31'0 0.0
2016-Apr-26 14:34N 38°02' E 023°31'0 0.0
2016-Apr-26 13:33N 38°02' E 023°31'0 0.0
2016-Apr-26 12:34N 38°02' E 023°31'2 2.4
2016-Apr-26 11:33N 38°02' E 023°34'1 1.3
2016-Apr-26 10:33N 38°02' E 023°35'0 0.0
2016-Apr-26 09:33N 38°02' E 023°35'0 0.0
2016-Apr-26 08:33N 38°02' E 023°35'0 0.0
2016-Apr-26 07:34N 38°02' E 023°35'0 0.0
2016-Apr-26 06:33N 38°02' E 023°35'0 0.0
2016-Apr-26 05:33N 38°02' E 023°35'0 0.0
2016-Apr-26 04:34N 38°02' E 023°35'3 2.7
2016-Apr-26 03:34N 38°02' E 023°32'0 0.0
2016-Apr-26 02:33N 38°02' E 023°32'0 0.0
2016-Apr-26 01:33N 38°02' E 023°32'0 0.0
2016-Apr-26 00:33N 38°02' E 023°32'0 0.0
2016-Apr-25 23:34N 38°02' E 023°32'2 2.3
2016-Apr-25 22:33N 38°01' E 023°29'7 7.0
2016-Apr-25 21:33N 37°56' E 023°24'6 5.7
2016-Apr-25 20:34N 37°53' E 023°30'8 7.8
2016-Apr-25 19:33N 37°57' E 023°38'0 0.0
2016-Apr-25 18:33N 37°57' E 023°38'0 0.0
2016-Apr-25 17:33N 37°57' E 023°38'2 1.5
2016-Apr-25 16:33N 37°56' E 023°37'2 2.0
2016-Apr-25 15:33N 37°57' E 023°35'0 0.0
2016-Apr-25 14:33N 37°57' E 023°35'3 3.1
2016-Apr-25 13:33N 37°57' E 023°38'0 0.0
2016-Apr-25 12:33N 37°57' E 023°38'2 2.0
2016-Apr-25 11:33N 37°57' E 023°36'4 4.3
2016-Apr-25 10:34N 38°01' E 023°34'2 1.9
2016-Apr-25 09:33N 38°02' E 023°35'0 0.0
2016-Apr-25 08:34N 38°02' E 023°35'0 0.0
2016-Apr-25 07:33N 38°02' E 023°35'0 0.0
2016-Apr-25 06:33N 38°02' E 023°35'0 0.0
2016-Apr-25 05:33N 38°02' E 023°35'3 0.1
2016-Apr-23 08:29N 38°02' E 023°32'6 6.5
2016-Apr-23 07:33N 37°57' E 023°36'2 1.6
2016-Apr-23 06:33N 37°56' E 023°38'0 0.0
2016-Apr-23 05:33N 37°56' E 023°37'  

Dump ship's entire track history